Time;durP1;ratioP1;P1;durP2;ratioP2;P2;SDS_P1;SDS_P2;PMS_P1;PMS_P2;Temp;Humidity;BMP_temperature;BMP_pressure;BME280_temperature;BME280_humidity;BME280_pressure;Samples;Min_cycle;Max_cycle;Signal;HPM_P1;HPM_P2
2024/01/24 00:00:19;;;;;;;;;0.00;0.00;;;;;;;;5090772;28;8854;-87
2024/01/24 00:02:48;;;;;;;;;0.00;0.00;;;;;;;;5085436;28;9011;-87
2024/01/24 00:05:15;;;;;;;;;0.00;0.00;;;;;;;;5091035;28;9809;-86
2024/01/24 00:07:43;;;;;;;;;0.00;0.00;;;;;;;;5080164;28;8907;-83
2024/01/24 00:10:13;;;;;;;;;0.00;0.00;;;;;;;;5090402;28;8838;-86
2024/01/24 00:12:42;;;;;;;;;0.00;0.00;;;;;;;;5090205;28;8850;-87
2024/01/24 00:15:10;;;;;;;;;0.00;0.00;;;;;;;;5089519;28;8838;-83
2024/01/24 00:17:37;;;;;;;;;0.00;0.00;;;;;;;;5077093;28;8888;-85
2024/01/24 00:20:09;;;;;;;;;0.00;0.00;;;;;;;;5090337;28;8884;-89
2024/01/24 00:22:36;;;;;;;;;0.00;0.00;;;;;;;;5088749;28;8862;-85
2024/01/24 00:25:03;;;;;;;;;0.00;0.00;;;;;;;;5089538;28;9355;-83
2024/01/24 00:27:31;;;;;;;;;0.00;0.00;;;;;;;;5088463;28;8890;-86
2024/01/24 00:30:03;;;;;;;;;0.00;0.00;;;;;;;;5090002;28;8843;-84
2024/01/24 00:32:31;;;;;;;;;0.00;0.00;;;;;;;;5090165;28;8931;-85
2024/01/24 00:34:58;;;;;;;;;0.00;0.00;;;;;;;;5088419;28;8973;-84
2024/01/24 00:37:25;;;;;;;;;0.00;0.00;;;;;;;;5089330;28;8874;-84
2024/01/24 00:39:54;;;;;;;;;0.00;0.00;;;;;;;;5087612;28;8842;-83
2024/01/24 00:42:21;;;;;;;;;0.00;0.00;;;;;;;;5079921;28;8915;-87
2024/01/24 00:44:50;;;;;;;;;0.25;0.00;;;;;;;;5092912;28;8838;-82
2024/01/24 00:47:19;;;;;;;;;0.00;0.00;;;;;;;;5095097;28;8846;-86
2024/01/24 00:49:47;;;;;;;;;0.00;0.00;;;;;;;;5096463;28;8850;-85
2024/01/24 00:52:14;;;;;;;;;0.00;0.00;;;;;;;;5096176;28;8826;-85
2024/01/24 00:54:42;;;;;;;;;1.00;0.00;;;;;;;;5096001;28;8860;-85
2024/01/24 00:57:10;;;;;;;;;0.00;0.00;;;;;;;;5094817;28;8968;-83
2024/01/24 00:59:38;;;;;;;;;0.00;0.00;;;;;;;;5076325;28;8866;-86
2024/01/24 01:02:05;;;;;;;;;0.00;0.00;;;;;;;;5090200;28;9720;-84
2024/01/24 01:04:34;;;;;;;;;0.00;0.00;;;;;;;;5091582;28;8931;-88
2024/01/24 01:07:01;;;;;;;;;0.00;0.00;;;;;;;;5092364;28;8969;-88
2024/01/24 01:09:36;;;;;;;;;0.00;0.00;;;;;;;;5091778;28;8847;-85
2024/01/24 01:12:03;;;;;;;;;0.00;0.00;;;;;;;;5089901;28;8870;-85
2024/01/24 01:14:31;;;;;;;;;0.00;0.00;;;;;;;;5088219;28;8860;-88
2024/01/24 01:16:58;;;;;;;;;0.00;0.00;;;;;;;;5076299;28;8891;-88
2024/01/24 01:19:25;;;;;;;;;0.00;0.00;;;;;;;;5088166;28;8830;-87
2024/01/24 01:21:54;;;;;;;;;0.00;0.00;;;;;;;;5087924;28;8930;-87
2024/01/24 01:24:21;;;;;;;;;0.00;0.00;;;;;;;;5087974;28;8842;-87
2024/01/24 01:26:49;;;;;;;;;0.00;0.00;;;;;;;;5081043;28;8860;-87
2024/01/24 01:29:16;;;;;;;;;0.00;0.00;;;;;;;;5092617;28;8933;-87
2024/01/24 01:31:43;;;;;;;;;0.00;0.00;;;;;;;;5088371;28;8803;-88
2024/01/24 01:34:10;;;;;;;;;0.50;0.00;;;;;;;;5090988;28;8850;-84
2024/01/24 01:36:38;;;;;;;;;0.00;0.00;;;;;;;;5092750;28;8988;-86
2024/01/24 01:39:07;;;;;;;;;0.00;0.00;;;;;;;;5093321;28;8957;-86
2024/01/24 01:41:36;;;;;;;;;0.00;0.00;;;;;;;;5093075;28;8858;-88
2024/01/24 01:44:06;;;;;;;;;0.00;0.00;;;;;;;;5092997;28;9599;-87
2024/01/24 01:46:34;;;;;;;;;0.00;0.00;;;;;;;;5088886;28;8827;-86
2024/01/24 01:49:02;;;;;;;;;0.00;0.00;;;;;;;;5092081;28;8866;-85
2024/01/24 01:51:30;;;;;;;;;0.00;0.00;;;;;;;;5093857;28;8842;-85
2024/01/24 01:53:58;;;;;;;;;0.00;0.00;;;;;;;;5095439;28;9302;-82
2024/01/24 01:56:27;;;;;;;;;0.00;0.00;;;;;;;;5111521;28;8834;-79
2024/01/24 01:58:58;;;;;;;;;0.00;0.00;;;;;;;;5097734;28;8954;-84
2024/01/24 02:01:25;;;;;;;;;0.00;0.00;;;;;;;;5068370;28;9219;-85
2024/01/24 02:03:53;;;;;;;;;0.00;0.00;;;;;;;;5092816;28;8839;-85
2024/01/24 02:06:20;;;;;;;;;0.00;0.00;;;;;;;;5091214;28;8874;-84
2024/01/24 02:08:47;;;;;;;;;0.00;0.00;;;;;;;;5085368;28;8877;-87
2024/01/24 02:11:15;;;;;;;;;0.00;0.00;;;;;;;;5084471;28;8815;-87
2024/01/24 02:13:58;;;;;;;;;0.00;0.00;;;;;;;;5093769;28;8884;-88
2024/01/24 02:19:32;;;;;;;;;0.00;0.00;;;;;;;;5092426;28;8854;-88
2024/01/24 02:22:44;;;;;;;;;0.00;0.00;;;;;;;;5093789;28;8858;-87
2024/01/24 02:25:50;;;;;;;;;0.25;0.00;;;;;;;;5078130;28;8881;-86
2024/01/24 02:28:25;;;;;;;;;0.00;0.00;;;;;;;;5070193;28;8885;-87
2024/01/24 02:30:54;;;;;;;;;0.00;0.00;;;;;;;;5095020;28;8790;-88
2024/01/24 02:33:49;;;;;;;;;0.00;0.00;;;;;;;;5097955;28;8944;-87
2024/01/24 02:36:16;;;;;;;;;0.00;0.00;;;;;;;;5099041;28;8850;-88
2024/01/24 02:38:43;;;;;;;;;0.00;0.00;;;;;;;;5095920;28;8862;-82
2024/01/24 02:41:11;;;;;;;;;0.00;0.00;;;;;;;;5098243;28;8854;-82
2024/01/24 02:43:39;;;;;;;;;0.00;0.00;;;;;;;;5096020;28;8850;-85
2024/01/24 02:46:07;;;;;;;;;0.00;0.00;;;;;;;;5095152;28;8858;-84
2024/01/24 02:48:37;;;;;;;;;0.00;0.00;;;;;;;;5091413;28;8873;-86
2024/01/24 02:51:04;;;;;;;;;0.00;0.00;;;;;;;;5094289;28;8834;-85
2024/01/24 02:53:32;;;;;;;;;0.00;0.00;;;;;;;;5096496;28;8904;-85
2024/01/24 02:56:03;;;;;;;;;0.00;0.00;;;;;;;;5093459;28;8861;-86
2024/01/24 02:58:30;;;;;;;;;0.00;0.00;;;;;;;;5092367;28;8870;-86
2024/01/24 03:00:59;;;;;;;;;0.00;0.00;;;;;;;;5088664;28;8812;-83
2024/01/24 03:03:26;;;;;;;;;0.00;0.00;;;;;;;;5090917;28;8868;-82
2024/01/24 03:05:53;;;;;;;;;0.00;0.00;;;;;;;;5072382;28;9803;-84
2024/01/24 03:08:21;;;;;;;;;0.00;0.00;;;;;;;;5091054;28;8858;-83
2024/01/24 03:10:48;;;;;;;;;0.00;0.00;;;;;;;;5090585;28;8854;-83
2024/01/24 03:13:15;;;;;;;;;0.00;0.00;;;;;;;;5090497;28;8963;-82
2024/01/24 03:15:43;;;;;;;;;0.00;0.00;;;;;;;;5089874;28;8843;-81
2024/01/24 03:18:12;;;;;;;;;0.00;0.00;;;;;;;;5090504;28;9680;-82
2024/01/24 03:20:39;;;;;;;;;0.00;0.00;;;;;;;;5090165;28;9668;-80
2024/01/24 03:23:06;;;;;;;;;0.00;0.00;;;;;;;;5090716;28;8846;-81
2024/01/24 03:25:37;;;;;;;;;0.00;0.00;;;;;;;;5090406;28;8961;-84
2024/01/24 03:28:05;;;;;;;;;0.00;0.00;;;;;;;;5077466;28;8854;-82
2024/01/24 03:30:35;;;;;;;;;0.00;0.00;;;;;;;;5070959;28;8797;-82
2024/01/24 03:33:04;;;;;;;;;0.00;0.00;;;;;;;;5090494;28;8851;-82
2024/01/24 03:35:33;;;;;;;;;0.00;0.00;;;;;;;;5087938;28;8856;-81
2024/01/24 03:38:04;;;;;;;;;0.00;0.00;;;;;;;;5090830;28;9710;-83
2024/01/24 03:40:32;;;;;;;;;0.00;0.00;;;;;;;;5089862;28;8842;-82
2024/01/24 03:42:59;;;;;;;;;0.00;0.00;;;;;;;;5103877;28;8937;-79
2024/01/24 03:45:26;;;;;;;;;0.00;0.00;;;;;;;;5088403;28;8836;-82
2024/01/24 03:47:54;;;;;;;;;0.00;0.00;;;;;;;;5088381;28;8884;-82
2024/01/24 03:50:21;;;;;;;;;0.00;0.00;;;;;;;;5081960;28;8848;-82
2024/01/24 03:52:50;;;;;;;;;0.00;0.00;;;;;;;;5087061;28;8876;-83
2024/01/24 03:55:17;;;;;;;;;0.00;0.00;;;;;;;;5077162;28;8848;-80
2024/01/24 03:57:44;;;;;;;;;0.00;0.00;;;;;;;;5090874;28;8850;-82
2024/01/24 04:00:12;;;;;;;;;0.00;0.00;;;;;;;;5087886;28;8873;-84
2024/01/24 04:02:41;;;;;;;;;0.00;0.00;;;;;;;;5073774;28;9619;-81
2024/01/24 04:05:09;;;;;;;;;0.00;0.00;;;;;;;;5082726;28;9637;-80
2024/01/24 04:07:40;;;;;;;;;0.00;0.00;;;;;;;;5089758;28;8842;-81
2024/01/24 04:10:10;;;;;;;;;0.00;0.00;;;;;;;;5090328;28;8854;-83
2024/01/24 04:12:38;;;;;;;;;0.00;0.00;;;;;;;;5090964;28;8873;-82
2024/01/24 04:15:09;;;;;;;;;0.00;0.00;;;;;;;;5091306;28;8876;-81
2024/01/24 04:17:37;;;;;;;;;0.00;0.00;;;;;;;;5079636;28;8866;-85
2024/01/24 04:20:07;;;;;;;;;0.00;0.00;;;;;;;;5077076;28;8842;-81
2024/01/24 04:22:34;;;;;;;;;0.00;0.00;;;;;;;;5095144;28;8849;-82
2024/01/24 04:25:02;;;;;;;;;0.00;0.00;;;;;;;;5096329;28;8985;-81
2024/01/24 04:27:31;;;;;;;;;0.00;0.00;;;;;;;;5095233;28;8868;-81
2024/01/24 04:29:59;;;;;;;;;0.00;0.00;;;;;;;;5096876;28;8854;-82
2024/01/24 04:32:26;;;;;;;;;0.00;0.00;;;;;;;;5093620;28;8813;-81
2024/01/24 04:34:54;;;;;;;;;0.00;0.00;;;;;;;;5090761;28;8858;-84
2024/01/24 04:37:21;;;;;;;;;0.00;0.00;;;;;;;;5090059;28;8874;-83
2024/01/24 04:39:49;;;;;;;;;0.00;0.00;;;;;;;;5093330;28;9709;-83
2024/01/24 04:42:16;;;;;;;;;0.00;0.00;;;;;;;;5093553;28;8834;-82
2024/01/24 04:44:47;;;;;;;;;0.75;0.00;;;;;;;;5091427;28;8835;-85
2024/01/24 04:47:14;;;;;;;;;0.00;0.00;;;;;;;;5085103;28;8848;-86
2024/01/24 04:49:42;;;;;;;;;0.00;0.00;;;;;;;;5081847;28;8882;-84
2024/01/24 04:52:12;;;;;;;;;0.00;0.00;;;;;;;;5087513;28;8850;-82
2024/01/24 04:54:41;;;;;;;;;0.00;0.00;;;;;;;;5089617;28;8858;-81
2024/01/24 04:57:08;;;;;;;;;0.00;0.00;;;;;;;;5088171;28;8866;-81
2024/01/24 04:59:40;;;;;;;;;0.25;0.00;;;;;;;;5088895;28;8858;-82
2024/01/24 05:02:11;;;;;;;;;1.00;0.00;;;;;;;;5094680;28;8806;-79
2024/01/24 05:04:38;;;;;;;;;0.00;0.00;;;;;;;;5088022;28;8895;-80
2024/01/24 05:07:07;;;;;;;;;0.00;0.00;;;;;;;;5087384;28;9680;-80
2024/01/24 05:09:35;;;;;;;;;0.00;0.00;;;;;;;;5088489;28;8923;-80
2024/01/24 05:12:02;;;;;;;;;0.00;0.00;;;;;;;;5088108;28;9679;-81
2024/01/24 05:14:29;;;;;;;;;0.00;0.00;;;;;;;;5087926;28;8983;-82
2024/01/24 05:16:56;;;;;;;;;0.00;0.00;;;;;;;;5085413;28;8854;-82
2024/01/24 05:19:25;;;;;;;;;0.00;0.00;;;;;;;;5083633;28;8961;-80
2024/01/24 05:21:52;;;;;;;;;0.00;0.00;;;;;;;;5087960;28;8850;-82
2024/01/24 05:24:20;;;;;;;;;0.00;0.00;;;;;;;;5087861;28;9705;-81
2024/01/24 05:26:47;;;;;;;;;0.00;0.00;;;;;;;;5070679;28;8989;-81
2024/01/24 05:29:14;;;;;;;;;0.00;0.00;;;;;;;;5084584;28;9593;-83
2024/01/24 05:31:42;;;;;;;;;0.00;0.00;;;;;;;;5087807;28;8844;-82
2024/01/24 05:34:11;;;;;;;;;1.00;0.00;;;;;;;;5088082;28;8834;-82
2024/01/24 05:36:40;;;;;;;;;0.00;0.00;;;;;;;;5080309;28;8870;-83
2024/01/24 05:39:14;;;;;;;;;0.00;0.00;;;;;;;;5085077;28;8882;-82
2024/01/24 05:41:45;;;;;;;;;0.00;0.00;;;;;;;;5088576;28;8830;-83
2024/01/24 05:44:14;;;;;;;;;0.00;0.00;;;;;;;;5088063;28;8924;-86
2024/01/24 05:46:44;;;;;;;;;0.00;0.00;;;;;;;;5088211;28;8852;-79
2024/01/24 05:49:11;;;;;;;;;0.00;0.00;;;;;;;;5080970;28;8969;-79
2024/01/24 05:51:42;;;;;;;;;2.50;0.00;;;;;;;;5084290;28;8838;-86
2024/01/24 05:54:09;;;;;;;;;0.00;0.00;;;;;;;;5084119;28;8841;-77
2024/01/24 05:56:38;;;;;;;;;0.00;0.00;;;;;;;;5088074;28;8858;-77
2024/01/24 05:59:05;;;;;;;;;1.50;0.00;;;;;;;;5088615;28;8943;-78
2024/01/24 06:01:43;;;;;;;;;0.00;0.00;;;;;;;;5088075;28;8929;-78
2024/01/24 06:04:15;;;;;;;;;0.50;0.00;;;;;;;;5090574;28;8841;-77
2024/01/24 06:06:44;;;;;;;;;0.00;0.00;;;;;;;;5087406;28;8912;-77
2024/01/24 06:09:11;;;;;;;;;0.00;0.00;;;;;;;;5090897;28;8987;-73
2024/01/24 06:11:39;;;;;;;;;0.00;0.00;;;;;;;;5088942;28;8884;-73
2024/01/24 06:14:06;;;;;;;;;0.00;0.00;;;;;;;;5083181;28;8837;-73
2024/01/24 06:16:33;;;;;;;;;1.75;0.00;;;;;;;;5083663;28;8968;-73
2024/01/24 06:19:00;;;;;;;;;0.00;0.00;;;;;;;;5084790;28;8876;-74
2024/01/24 06:21:28;;;;;;;;;1.00;1.00;;;;;;;;5093424;28;8838;-74
2024/01/24 06:23:56;;;;;;;;;0.25;0.25;;;;;;;;5085529;28;8854;-74
2024/01/24 06:26:23;;;;;;;;;1.50;0.00;;;;;;;;5086361;28;8973;-74
2024/01/24 06:28:50;;;;;;;;;3.00;0.00;;;;;;;;5091381;28;9667;-75
2024/01/24 06:31:18;;;;;;;;;1.00;0.00;;;;;;;;5088771;28;8828;-77
2024/01/24 06:33:45;;;;;;;;;0.00;0.00;;;;;;;;5092617;28;8888;-76
2024/01/24 06:36:12;;;;;;;;;2.00;0.00;;;;;;;;5091164;28;8893;-74
2024/01/24 06:38:42;;;;;;;;;3.25;0.00;;;;;;;;5085336;28;8888;-74
2024/01/24 06:41:13;;;;;;;;;0.00;0.00;;;;;;;;5090159;28;8927;-74
2024/01/24 06:43:42;;;;;;;;;1.75;0.50;;;;;;;;5089843;28;9601;-73
2024/01/24 06:46:09;;;;;;;;;0.00;0.00;;;;;;;;5090462;28;8884;-75
2024/01/24 06:48:36;;;;;;;;;0.50;0.00;;;;;;;;5089061;28;8870;-74
2024/01/24 06:51:04;;;;;;;;;2.00;0.50;;;;;;;;5090893;28;8846;-74
2024/01/24 06:53:32;;;;;;;;;1.75;0.00;;;;;;;;5081431;28;8866;-75
2024/01/24 06:55:59;;;;;;;;;2.00;0.00;;;;;;;;5078944;28;8877;-75
2024/01/24 06:58:28;;;;;;;;;0.00;0.00;;;;;;;;5086146;28;8840;-75
2024/01/24 07:00:56;;;;;;;;;2.75;1.00;;;;;;;;5089760;28;8799;-74
2024/01/24 07:03:26;;;;;;;;;0.25;0.25;;;;;;;;5087675;28;8868;-74
2024/01/24 07:05:54;;;;;;;;;4.50;1.00;;;;;;;;5087838;28;8976;-75
2024/01/24 07:08:21;;;;;;;;;1.50;0.00;;;;;;;;5089405;28;8830;-74
2024/01/24 07:10:48;;;;;;;;;0.00;0.00;;;;;;;;5089353;28;8858;-76
2024/01/24 07:13:24;;;;;;;;;1.00;1.00;;;;;;;;5089798;28;8827;-74
2024/01/24 07:15:53;;;;;;;;;1.00;1.00;;;;;;;;5089477;28;9737;-74
2024/01/24 07:18:20;;;;;;;;;1.00;1.00;;;;;;;;5088303;28;8842;-75
2024/01/24 07:20:47;;;;;;;;;1.50;1.25;;;;;;;;5089747;28;8858;-76
2024/01/24 07:23:15;;;;;;;;;0.25;0.25;;;;;;;;5088920;28;8891;-75
2024/01/24 07:25:45;;;;;;;;;1.75;1.75;;;;;;;;5089785;28;8930;-74
2024/01/24 07:28:12;;;;;;;;;0.00;0.00;;;;;;;;5089458;28;8869;-79
2024/01/24 07:30:40;;;;;;;;;1.25;1.00;;;;;;;;5087544;28;8901;-76
2024/01/24 07:33:08;;;;;;;;;0.75;0.75;;;;;;;;5084737;28;9229;-74
2024/01/24 07:35:42;;;;;;;;;2.75;1.00;;;;;;;;5086093;28;8881;-76
2024/01/24 07:38:09;;;;;;;;;3.75;2.00;;;;;;;;5085894;28;8857;-73
2024/01/24 07:40:37;;;;;;;;;0.75;0.75;;;;;;;;5089590;28;8880;-74
2024/01/24 07:43:04;;;;;;;;;3.50;3.25;;;;;;;;5087994;28;8890;-75
2024/01/24 07:45:36;;;;;;;;;1.25;1.00;;;;;;;;5088224;28;9675;-73
2024/01/24 07:48:03;;;;;;;;;1.00;1.00;;;;;;;;5089251;28;8879;-78
2024/01/24 07:50:32;;;;;;;;;3.25;1.50;;;;;;;;5084626;28;8878;-79
2024/01/24 07:52:59;;;;;;;;;5.00;2.00;;;;;;;;5087838;28;8984;-79
2024/01/24 07:55:26;;;;;;;;;3.00;3.00;;;;;;;;5078398;28;8838;-80
2024/01/24 07:57:53;;;;;;;;;7.50;4.25;;;;;;;;5089810;28;8952;-79
2024/01/24 08:00:21;;;;;;;;;3.00;2.00;;;;;;;;5088978;28;8980;-80
2024/01/24 08:02:48;;;;;;;;;4.00;1.00;;;;;;;;5090929;28;8862;-77
2024/01/24 08:05:16;;;;;;;;;3.75;3.00;;;;;;;;5088193;28;8852;-77
2024/01/24 08:07:44;;;;;;;;;6.25;4.00;;;;;;;;5086257;28;8959;-79
2024/01/24 08:10:11;;;;;;;;;7.00;3.00;;;;;;;;5085039;28;8877;-77
2024/01/24 08:12:39;;;;;;;;;3.50;3.00;;;;;;;;5086276;28;8981;-77
2024/01/24 08:15:07;;;;;;;;;3.50;2.25;;;;;;;;5078614;28;8961;-76
2024/01/24 08:17:36;;;;;;;;;5.50;3.50;;;;;;;;5084525;28;8885;-76
2024/01/24 08:20:05;;;;;;;;;1.50;1.50;;;;;;;;5084860;28;8966;-76
2024/01/24 08:22:33;;;;;;;;;2.50;2.00;;;;;;;;5088971;28;8834;-76
2024/01/24 08:25:01;;;;;;;;;6.33;3.00;;;;;;;;5087895;28;8834;-78
2024/01/24 08:27:29;;;;;;;;;4.00;3.00;;;;;;;;5083474;28;8927;-75
2024/01/24 08:29:56;;;;;;;;;2.00;2.00;;;;;;;;5079677;28;8982;-78
2024/01/24 08:32:25;;;;;;;;;3.67;3.33;;;;;;;;5087919;28;8867;-74
2024/01/24 08:34:53;;;;;;;;;6.50;3.00;;;;;;;;5078528;28;8926;-77
2024/01/24 08:37:20;;;;;;;;;2.50;2.50;;;;;;;;5087627;28;8857;-76
2024/01/24 08:39:47;;;;;;;;;2.00;2.00;;;;;;;;5088904;28;8874;-74
2024/01/24 08:42:16;;;;;;;;;7.75;3.25;;;;;;;;5077304;28;9659;-75
2024/01/24 08:44:43;;;;;;;;;7.00;3.00;;;;;;;;5093623;28;8938;-75
2024/01/24 08:47:11;;;;;;;;;2.75;2.75;;;;;;;;5095067;28;8842;-79
2024/01/24 08:49:38;;;;;;;;;1.00;1.00;;;;;;;;5088396;28;8872;-78
2024/01/24 08:52:06;;;;;;;;;4.00;4.00;;;;;;;;5075558;28;8935;-78
2024/01/24 08:54:34;;;;;;;;;8.75;4.50;;;;;;;;5076513;28;8866;-77
2024/01/24 08:57:01;;;;;;;;;6.50;2.25;;;;;;;;5084690;28;9684;-76
2024/01/24 08:59:29;;;;;;;;;6.25;3.00;;;;;;;;5088228;28;8860;-77
2024/01/24 09:01:57;;;;;;;;;6.75;3.00;;;;;;;;5086507;28;9576;-79
2024/01/24 09:04:24;;;;;;;;;3.00;3.00;;;;;;;;5088582;28;8850;-79
2024/01/24 09:06:52;;;;;;;;;1.75;1.75;;;;;;;;5087927;28;8854;-79
2024/01/24 09:09:20;;;;;;;;;7.50;4.75;;;;;;;;5088133;28;8976;-79
2024/01/24 09:11:48;;;;;;;;;4.25;2.50;;;;;;;;5088354;28;8884;-76
2024/01/24 09:14:19;;;;;;;;;6.75;4.00;;;;;;;;5086156;28;8946;-74
2024/01/24 09:16:48;;;;;;;;;4.50;2.25;;;;;;;;5087472;28;8881;-77
2024/01/24 09:19:17;;;;;;;;;7.50;6.25;;;;;;;;5086345;28;8862;-78
2024/01/24 09:21:44;;;;;;;;;7.00;2.00;;;;;;;;5076714;28;8918;-78
2024/01/24 09:24:12;;;;;;;;;3.50;2.00;;;;;;;;5087433;28;8850;-79
2024/01/24 09:26:39;;;;;;;;;3.50;2.50;;;;;;;;5088181;28;8866;-79
2024/01/24 09:29:06;;;;;;;;;4.75;3.00;;;;;;;;5083132;28;8901;-78
2024/01/24 09:31:33;;;;;;;;;5.50;4.50;;;;;;;;5087408;28;8810;-77
2024/01/24 09:34:02;;;;;;;;;6.75;3.75;;;;;;;;5084835;28;9222;-79
2024/01/24 09:36:30;;;;;;;;;3.00;2.00;;;;;;;;5078137;28;8862;-77
2024/01/24 09:38:57;;;;;;;;;2.50;2.50;;;;;;;;5087687;28;8861;-78
2024/01/24 09:41:24;;;;;;;;;6.25;3.00;;;;;;;;5088707;28;8846;-81
2024/01/24 09:43:56;;;;;;;;;4.00;3.00;;;;;;;;5088181;28;8834;-80
2024/01/24 09:46:23;;;;;;;;;6.75;4.25;;;;;;;;5082065;28;8854;-79
2024/01/24 09:48:50;;;;;;;;;3.00;2.75;;;;;;;;5084726;28;8875;-79
2024/01/24 09:51:19;;;;;;;;;4.00;2.75;;;;;;;;5092278;28;8921;-80
2024/01/24 09:53:47;;;;;;;;;2.00;0.50;;;;;;;;5092982;28;8935;-80
2024/01/24 09:56:15;;;;;;;;;5.75;4.00;;;;;;;;5081714;28;8862;-80
2024/01/24 09:58:42;;;;;;;;;5.75;3.50;;;;;;;;5094961;28;8996;-79
2024/01/24 10:01:13;;;;;;;;;8.00;1.25;;;;;;;;5086293;28;8857;-80
2024/01/24 10:03:41;;;;;;;;;5.75;4.25;;;;;;;;5093285;28;8830;-75
2024/01/24 10:06:10;;;;;;;;;3.50;3.25;;;;;;;;5091829;28;8873;-78
2024/01/24 10:08:39;;;;;;;;;11.00;5.50;;;;;;;;5091017;28;8885;-77
2024/01/24 10:11:08;;;;;;;;;13.75;6.25;;;;;;;;5094227;28;8881;-75
2024/01/24 10:13:37;;;;;;;;;5.50;5.00;;;;;;;;5087930;28;8844;-80
2024/01/24 10:16:07;;;;;;;;;8.75;5.50;;;;;;;;5073468;28;9662;-76
2024/01/24 10:18:35;;;;;;;;;4.25;3.75;;;;;;;;5090993;28;8932;-76
2024/01/24 10:21:03;;;;;;;;;4.25;4.25;;;;;;;;5088888;28;8861;-77
2024/01/24 10:23:30;;;;;;;;;6.00;2.75;;;;;;;;5080766;28;8846;-79
2024/01/24 10:26:01;;;;;;;;;4.50;2.50;;;;;;;;5090128;28;8842;-79
2024/01/24 10:28:28;;;;;;;;;4.00;4.00;;;;;;;;5089133;28;8857;-79
2024/01/24 10:30:56;;;;;;;;;4.00;4.00;;;;;;;;5089135;28;8917;-79
2024/01/24 10:33:23;;;;;;;;;6.00;4.50;;;;;;;;5079276;28;8825;-78
2024/01/24 10:35:51;;;;;;;;;5.25;4.00;;;;;;;;5083216;28;8966;-80
2024/01/24 10:38:23;;;;;;;;;6.00;5.00;;;;;;;;5091305;28;8889;-82
2024/01/24 10:40:56;;;;;;;;;10.00;5.75;;;;;;;;5090462;28;8850;-80
2024/01/24 10:43:26;;;;;;;;;9.00;6.50;;;;;;;;5087724;28;8978;-80
2024/01/24 10:45:54;;;;;;;;;5.50;4.00;;;;;;;;5091847;28;9643;-80
2024/01/24 10:48:21;;;;;;;;;7.25;4.00;;;;;;;;5104852;28;9776;-74
2024/01/24 10:50:49;;;;;;;;;6.75;6.00;;;;;;;;5103195;28;8862;-79
2024/01/24 10:53:16;;;;;;;;;6.00;3.00;;;;;;;;5089683;28;9645;-80
2024/01/24 10:55:43;;;;;;;;;8.00;3.75;;;;;;;;5090954;28;8830;-76
2024/01/24 10:58:12;;;;;;;;;3.00;1.00;;;;;;;;5089101;28;8834;-78
2024/01/24 11:00:42;;;;;;;;;10.00;4.25;;;;;;;;5092369;28;8933;-80
2024/01/24 11:03:09;;;;;;;;;3.75;3.00;;;;;;;;5092342;28;8861;-79
2024/01/24 11:05:41;;;;;;;;;9.00;5.00;;;;;;;;5090918;28;9300;-78
2024/01/24 11:08:14;;;;;;;;;9.50;6.00;;;;;;;;5092599;28;8904;-81
2024/01/24 11:10:43;;;;;;;;;3.25;2.00;;;;;;;;5091053;28;9668;-81
2024/01/24 11:13:12;;;;;;;;;7.00;5.50;;;;;;;;5090011;28;8842;-76
2024/01/24 11:15:45;;;;;;;;;4.25;2.25;;;;;;;;5090063;28;8984;-79
2024/01/24 11:18:23;;;;;;;;;3.75;3.00;;;;;;;;5090223;28;8870;-81
2024/01/24 11:20:55;;;;;;;;;7.75;4.75;;;;;;;;5089865;28;8938;-80
2024/01/24 11:23:43;;;;;;;;;7.50;6.00;;;;;;;;5086327;28;8984;-79
2024/01/24 11:26:10;;;;;;;;;8.75;5.00;;;;;;;;5089731;28;8854;-81
2024/01/24 11:28:38;;;;;;;;;7.50;6.25;;;;;;;;5086828;28;8873;-80
2024/01/24 11:31:08;;;;;;;;;5.25;4.50;;;;;;;;5089269;28;8787;-80
2024/01/24 11:33:35;;;;;;;;;6.25;5.25;;;;;;;;5091608;28;8876;-79
2024/01/24 11:36:05;;;;;;;;;6.25;5.25;;;;;;;;5091815;28;8842;-81
2024/01/24 11:38:37;;;;;;;;;5.50;1.50;;;;;;;;5094740;28;8877;-81
2024/01/24 11:41:22;;;;;;;;;9.00;4.25;;;;;;;;5091613;28;8850;-80
2024/01/24 11:43:49;;;;;;;;;9.25;7.00;;;;;;;;5095283;28;8873;-82
2024/01/24 11:46:25;;;;;;;;;5.75;3.25;;;;;;;;5096007;28;8961;-76
2024/01/24 11:48:52;;;;;;;;;2.50;2.00;;;;;;;;5093549;28;8899;-77
2024/01/24 11:51:20;;;;;;;;;8.50;4.50;;;;;;;;5091715;28;8846;-78
2024/01/24 11:53:47;;;;;;;;;3.50;3.00;;;;;;;;5099234;28;8858;-82
2024/01/24 11:56:15;;;;;;;;;4.75;4.25;;;;;;;;5080672;28;8855;-75
2024/01/24 11:58:45;;;;;;;;;5.50;4.00;;;;;;;;5088856;28;8839;-76
2024/01/24 12:01:13;;;;;;;;;3.25;3.25;;;;;;;;5089154;28;8893;-75
2024/01/24 12:03:48;;;;;;;;;7.25;4.75;;;;;;;;5087648;28;8878;-75
2024/01/24 12:06:16;;;;;;;;;10.25;8.75;;;;;;;;5086596;28;8865;-73
2024/01/24 12:08:46;;;;;;;;;8.75;5.00;;;;;;;;5095708;28;8865;-78
2024/01/24 12:11:14;;;;;;;;;5.75;3.75;;;;;;;;5091025;28;8848;-75
2024/01/24 12:13:42;;;;;;;;;7.75;6.75;;;;;;;;5091717;28;8842;-77
2024/01/24 12:16:17;;;;;;;;;7.33;3.00;;;;;;;;5083417;28;8842;-76
2024/01/24 12:18:44;;;;;;;;;6.00;4.25;;;;;;;;5088863;28;8850;-75
2024/01/24 12:21:16;;;;;;;;;4.00;4.00;;;;;;;;5088500;28;9447;-76
2024/01/24 12:23:46;;;;;;;;;9.25;5.50;;;;;;;;5088275;28;8862;-77
2024/01/24 12:26:13;;;;;;;;;5.00;4.75;;;;;;;;5089244;28;8872;-75
2024/01/24 12:28:41;;;;;;;;;4.00;4.00;;;;;;;;5085574;28;8846;-77
2024/01/24 12:31:09;;;;;;;;;6.75;4.50;;;;;;;;5084151;28;8834;-76
2024/01/24 12:33:36;;;;;;;;;6.00;4.75;;;;;;;;5083652;28;8830;-79
2024/01/24 12:36:05;;;;;;;;;6.00;3.00;;;;;;;;5087649;28;8846;-75
2024/01/24 12:38:35;;;;;;;;;3.25;1.25;;;;;;;;5088428;28;8831;-75
2024/01/24 12:41:03;;;;;;;;;10.00;5.00;;;;;;;;5088291;28;8846;-77
2024/01/24 12:43:31;;;;;;;;;6.50;3.75;;;;;;;;5088161;28;8881;-79
2024/01/24 12:46:05;;;;;;;;;4.25;3.00;;;;;;;;5088833;28;8865;-81
2024/01/24 12:48:33;;;;;;;;;6.75;4.00;;;;;;;;5087603;28;8977;-81
2024/01/24 12:51:00;;;;;;;;;10.00;5.25;;;;;;;;5088530;28;8873;-75
2024/01/24 12:53:27;;;;;;;;;5.75;5.50;;;;;;;;5086413;28;8835;-80
2024/01/24 12:56:01;;;;;;;;;6.75;3.25;;;;;;;;5077233;28;8830;-79
2024/01/24 12:58:31;;;;;;;;;5.00;2.75;;;;;;;;5087804;28;8870;-76
2024/01/24 13:00:59;;;;;;;;;4.75;3.00;;;;;;;;5087911;28;8771;-78
2024/01/24 13:03:26;;;;;;;;;2.50;2.50;;;;;;;;5087113;28;8842;-77
2024/01/24 13:05:53;;;;;;;;;7.75;3.00;;;;;;;;5087536;28;8988;-79
2024/01/24 13:08:20;;;;;;;;;8.00;2.75;;;;;;;;5087578;28;8854;-82
2024/01/24 13:10:48;;;;;;;;;6.00;4.50;;;;;;;;5088387;28;8889;-79
2024/01/24 13:13:21;;;;;;;;;7.50;3.25;;;;;;;;5088534;28;8866;-79
2024/01/24 13:15:48;;;;;;;;;7.25;3.75;;;;;;;;5089646;28;8846;-83
2024/01/24 13:18:15;;;;;;;;;5.00;4.75;;;;;;;;5092028;28;8838;-76
2024/01/24 13:20:43;;;;;;;;;8.00;5.00;;;;;;;;5091324;28;8861;-79
2024/01/24 13:23:13;;;;;;;;;9.25;4.75;;;;;;;;5089592;28;8864;-79
2024/01/24 13:25:40;;;;;;;;;7.50;3.75;;;;;;;;5089860;28;8858;-78
2024/01/24 13:28:09;;;;;;;;;7.25;6.75;;;;;;;;5088834;28;9774;-76
2024/01/24 13:30:40;;;;;;;;;6.25;5.00;;;;;;;;5090227;28;9359;-77
2024/01/24 13:33:09;;;;;;;;;4.75;3.00;;;;;;;;5091990;28;9208;-78
2024/01/24 13:35:36;;;;;;;;;4.75;3.75;;;;;;;;5090716;28;8875;-75
2024/01/24 13:38:04;;;;;;;;;1.75;1.75;;;;;;;;5092562;28;8874;-77
2024/01/24 13:40:31;;;;;;;;;2.00;2.00;;;;;;;;5090915;28;9005;-77
2024/01/24 13:43:01;;;;;;;;;5.00;5.00;;;;;;;;5086648;28;8900;-76
2024/01/24 13:45:28;;;;;;;;;3.25;3.25;;;;;;;;5083697;28;9230;-78
2024/01/24 13:47:56;;;;;;;;;4.00;2.00;;;;;;;;5089933;28;9609;-75
2024/01/24 13:50:24;;;;;;;;;8.00;4.00;;;;;;;;5089697;28;9577;-74
2024/01/24 13:52:51;;;;;;;;;3.25;3.25;;;;;;;;5089546;28;8850;-76
2024/01/24 13:55:18;;;;;;;;;4.75;2.75;;;;;;;;5085924;28;8862;-79
2024/01/24 13:57:46;;;;;;;;;3.25;3.00;;;;;;;;5088119;28;8850;-74
2024/01/24 14:00:14;;;;;;;;;4.75;2.75;;;;;;;;5086884;28;9740;-78
2024/01/24 14:02:42;;;;;;;;;6.00;3.75;;;;;;;;5087655;28;8853;-78
2024/01/24 14:05:11;;;;;;;;;5.75;5.75;;;;;;;;5086943;28;8877;-79
2024/01/24 14:07:42;;;;;;;;;6.75;4.00;;;;;;;;5087074;28;8890;-78
2024/01/24 14:10:10;;;;;;;;;3.00;3.00;;;;;;;;5087068;28;8846;-78
2024/01/24 14:12:38;;;;;;;;;2.75;2.75;;;;;;;;5086056;28;8849;-76
2024/01/24 14:15:06;;;;;;;;;7.00;3.25;;;;;;;;5086989;28;8846;-80
2024/01/24 14:17:34;;;;;;;;;4.00;2.00;;;;;;;;5086393;28;8850;-79
2024/01/24 14:20:02;;;;;;;;;2.25;1.50;;;;;;;;5086806;28;9605;-79
2024/01/24 14:22:31;;;;;;;;;5.00;2.00;;;;;;;;5086929;28;8953;-77
2024/01/24 14:24:59;;;;;;;;;4.25;4.25;;;;;;;;5074971;28;9637;-81
2024/01/24 14:27:27;;;;;;;;;4.25;2.25;;;;;;;;5086876;28;8826;-79
2024/01/24 14:29:55;;;;;;;;;3.75;3.75;;;;;;;;5083515;28;8976;-79
2024/01/24 14:32:22;;;;;;;;;8.00;3.25;;;;;;;;5082435;28;8806;-78
2024/01/24 14:34:49;;;;;;;;;5.75;1.75;;;;;;;;5089397;28;8886;-79
2024/01/24 14:37:19;;;;;;;;;4.25;3.50;;;;;;;;5090911;28;8838;-79
2024/01/24 14:39:51;;;;;;;;;4.50;4.00;;;;;;;;5091222;28;8850;-78
2024/01/24 14:42:18;;;;;;;;;3.75;2.75;;;;;;;;5090436;28;8838;-77
2024/01/24 14:44:49;;;;;;;;;4.50;3.50;;;;;;;;5091114;28;8838;-80
2024/01/24 14:47:17;;;;;;;;;4.50;3.25;;;;;;;;5089664;28;8846;-78
2024/01/24 14:49:47;;;;;;;;;7.75;5.75;;;;;;;;5091199;28;8838;-80
2024/01/24 14:52:14;;;;;;;;;4.25;3.50;;;;;;;;5089845;28;8968;-80
2024/01/24 14:54:44;;;;;;;;;5.50;3.25;;;;;;;;5077813;28;9747;-77
2024/01/24 14:57:12;;;;;;;;;4.25;4.00;;;;;;;;5088454;28;8965;-82
2024/01/24 14:59:41;;;;;;;;;3.00;3.00;;;;;;;;5090643;28;8874;-75
2024/01/24 15:02:08;;;;;;;;;5.75;3.25;;;;;;;;5088706;28;8802;-81
2024/01/24 15:04:36;;;;;;;;;4.00;3.50;;;;;;;;5090909;28;8897;-83
2024/01/24 15:07:05;;;;;;;;;2.25;2.25;;;;;;;;5090160;28;8862;-80